Terminal Aerodrome Forecast
Issued by NWS

Home | Current Version | Previous Version | Text Only | Print | Product List | Glossary On
Versions: 1 2 3 4 5 6 7 8 9 10 11 12 13 14 15 16 17 18 19
823
FTUS41 KGYX 250536
TAFLEB
TAF
KLEB 250536Z 2506/2606 00000KT P6SM SCT120 BKN200
      TEMPO 2507/2511 3SM BR BKN100
     FM251500 19007KT P6SM SCT100 BKN200
     FM252000 21008KT P6SM VCTS SCT060CB BKN080 PROB30 2520/2524 1SM
      TSRA SCT030 BKN050CB OVC080
     FM260100 VRB03KT 4SM BR SCT120=

USA.gov is the U.S. government's official web portal to all federal, state and local government web resources and services.